createdAt,value
2019-03-16T00:00:00.516Z,66.88
2019-03-16T00:02:31.216Z,65.05
2019-03-16T00:05:01.843Z,65.87
2019-03-16T00:07:33.367Z,66.35
2019-03-16T00:10:04.031Z,66.36
2019-03-16T00:12:34.550Z,65.99
2019-03-16T00:15:05.465Z,65.66
2019-03-16T00:17:36.026Z,64.06
2019-03-16T00:20:07.280Z,63.11
2019-03-16T00:22:37.829Z,63.70
2019-03-16T00:25:08.776Z,64.03
2019-03-16T00:27:39.380Z,64.78
2019-03-16T00:30:10.132Z,63.73
2019-03-16T00:32:40.918Z,64.30
2019-03-16T00:35:11.656Z,64.48
2019-03-16T00:37:42.294Z,64.80
2019-03-16T00:40:13.159Z,66.11
2019-03-16T00:42:43.655Z,66.48
2019-03-16T00:45:14.433Z,66.59
2019-03-16T00:47:45.049Z,67.16
2019-03-16T00:50:15.638Z,67.40
2019-03-16T00:52:46.326Z,68.37
2019-03-16T00:55:16.851Z,67.78
2019-03-16T00:57:47.321Z,68.64
2019-03-16T01:00:17.940Z,67.82
2019-03-16T01:02:48.432Z,67.13
2019-03-16T01:05:19.002Z,66.53
2019-03-16T01:07:49.466Z,65.84
2019-03-16T01:10:19.870Z,66.55
2019-03-16T01:12:50.390Z,65.23
2019-03-16T01:15:20.774Z,64.07
2019-03-16T01:17:51.239Z,61.97
2019-03-16T01:20:21.746Z,62.76
2019-03-16T01:22:52.170Z,64.17
2019-03-16T01:25:22.541Z,63.94
2019-03-16T01:27:53.075Z,63.32
2019-03-16T01:30:23.468Z,63.70
2019-03-16T01:32:54.015Z,62.77
2019-03-16T01:35:24.467Z,64.00
2019-03-16T01:37:54.847Z,64.07
2019-03-16T01:40:25.226Z,63.41
2019-03-16T01:42:55.843Z,61.36
2019-03-16T01:45:26.297Z,61.72
2019-03-16T01:47:56.976Z,61.02
2019-03-16T01:50:27.555Z,60.80
2019-03-16T01:52:57.970Z,61.80
2019-03-16T01:55:28.375Z,61.02
2019-03-16T01:57:58.845Z,61.79
2019-03-16T02:00:29.353Z,62.65
2019-03-16T02:02:59.826Z,60.59
2019-03-16T02:05:30.347Z,60.39
2019-03-16T02:08:00.912Z,60.04
2019-03-16T02:10:31.461Z,61.37
2019-03-16T02:13:01.855Z,61.92
2019-03-16T02:15:32.216Z,61.70
2019-03-16T02:18:02.871Z,62.43
2019-03-16T02:20:33.405Z,61.84
2019-03-16T02:23:03.975Z,61.91
2019-03-16T06:18:17.199Z,62.43
2019-03-16T06:20:47.648Z,62.33
2019-03-16T06:23:18.491Z,62.79
2019-03-16T06:25:49.433Z,62.96
2019-03-16T06:28:20.251Z,62.79
2019-03-16T06:30:50.950Z,63.71
2019-03-16T06:33:21.364Z,63.74
2019-03-16T06:35:52.122Z,63.13
2019-03-16T06:38:22.568Z,62.47
2019-03-16T06:40:53.130Z,62.36
2019-03-16T06:43:23.632Z,61.08
2019-03-16T06:45:54.037Z,58.44
2019-03-16T06:48:24.616Z,56.77
2019-03-16T06:50:55.030Z,55.32
2019-03-16T06:53:25.521Z,53.94
2019-03-16T06:55:55.987Z,52.76
2019-03-16T06:58:26.384Z,52.19
2019-03-16T07:00:56.990Z,53.00
2019-03-16T07:03:27.654Z,51.94
2019-03-16T07:05:58.864Z,51.42
2019-03-16T07:08:29.480Z,52.89
2019-03-16T07:11:00.373Z,54.31
2019-03-16T07:13:30.782Z,52.66
2019-03-16T07:16:01.802Z,53.63
2019-03-16T07:18:32.230Z,55.20
2019-03-16T07:21:02.691Z,53.69
2019-03-16T07:23:33.467Z,52.54
2019-03-16T07:26:14.116Z,56.03
2019-03-16T07:28:36.382Z,58.02
2019-03-16T07:31:07.035Z,58.75
2019-03-16T07:33:37.515Z,58.50
2019-03-16T07:36:08.339Z,59.14
2019-03-16T07:38:38.977Z,59.51
2019-03-16T07:41:09.802Z,60.34
2019-03-16T07:43:40.321Z,59.22
2019-03-16T07:46:10.974Z,58.17
2019-03-16T07:48:41.660Z,58.15
2019-03-16T07:51:12.317Z,57.59
2019-03-16T07:53:42.679Z,57.98
2019-03-16T07:56:13.454Z,58.54
2019-03-16T07:58:43.970Z,59.14
2019-03-16T08:01:14.641Z,58.58
2019-03-16T08:03:45.145Z,58.04
2019-03-16T08:06:16.076Z,54.79
2019-03-16T08:08:46.774Z,58.22
2019-03-16T08:11:17.255Z,57.26
2019-03-16T08:13:47.834Z,57.50
2019-03-16T08:16:18.621Z,53.96
2019-03-16T08:18:49.505Z,51.84
2019-03-16T08:21:20.085Z,52.15
2019-03-16T08:23:53.682Z,51.52
2019-03-16T08:26:23.703Z,50.72
2019-03-16T08:28:54.443Z,52.20
2019-03-16T08:31:25.253Z,52.09
2019-03-16T08:33:55.601Z,50.97
2019-03-16T08:36:26.184Z,49.67
2019-03-16T08:38:56.584Z,51.35
2019-03-16T08:41:27.100Z,52.56
2019-03-16T08:43:57.811Z,52.85
2019-03-16T08:46:28.501Z,52.24
2019-03-16T08:48:59.047Z,52.45
2019-03-16T08:51:29.520Z,54.29
2019-03-16T08:54:00.115Z,53.32
2019-03-16T08:56:30.599Z,52.01
2019-03-16T08:59:01.204Z,53.44
2019-03-16T09:01:31.793Z,54.62
2019-03-16T09:04:02.352Z,52.09
2019-03-16T09:06:32.991Z,49.25
2019-03-16T09:09:04.817Z,50.26
2019-03-16T09:11:35.326Z,51.75
2019-03-16T09:14:05.941Z,51.98
2019-03-16T09:16:37.052Z,50.45
2019-03-16T09:19:07.452Z,50.19
2019-03-16T09:21:38.141Z,52.58
2019-03-16T09:24:08.770Z,52.20
2019-03-16T09:26:39.146Z,52.82
2019-03-16T09:29:15.026Z,53.47
2019-03-16T09:31:42.146Z,53.41
2019-03-16T09:34:12.561Z,55.20
2019-03-16T09:36:43.066Z,54.70
2019-03-16T09:39:13.730Z,54.12
2019-03-16T09:41:44.268Z,52.89
2019-03-16T09:44:14.748Z,51.16
2019-03-16T09:46:45.265Z,49.69
2019-03-16T09:49:15.815Z,51.14
2019-03-16T09:51:46.420Z,52.42
2019-03-16T09:54:17.026Z,50.38
2019-03-16T09:57:00.261Z,50.97
2019-03-16T09:59:19.700Z,51.55
2019-03-16T10:01:50.154Z,50.87
2019-03-16T10:04:20.643Z,51.00
2019-03-16T10:06:51.212Z,48.60
2019-03-16T10:09:22.063Z,47.11
2019-03-16T10:11:52.465Z,48.23
2019-03-16T10:14:22.986Z,50.04
2019-03-16T10:16:53.917Z,48.74
2019-03-16T10:19:24.391Z,47.56
2019-03-16T10:21:54.906Z,50.63
2019-03-16T10:24:25.417Z,48.97
2019-03-16T10:26:55.846Z,45.42
2019-03-16T10:29:26.297Z,42.75
2019-03-16T10:31:57.180Z,42.74
2019-03-16T10:34:27.742Z,44.16
2019-03-16T10:36:58.276Z,47.58
2019-03-16T10:39:28.866Z,49.89
2019-03-16T10:41:59.440Z,51.48
2019-03-16T10:44:29.906Z,49.97
2019-03-16T10:47:00.544Z,48.95
2019-03-16T10:49:31.145Z,48.86
2019-03-16T10:52:01.676Z,48.69
2019-03-16T10:54:32.155Z,46.62
2019-03-16T10:57:04.416Z,44.86
2019-03-16T10:59:35.315Z,43.13
2019-03-16T11:02:05.982Z,42.62
2019-03-16T11:04:36.412Z,45.38
2019-03-16T11:07:06.967Z,46.61
2019-03-16T11:09:37.532Z,46.34
2019-03-16T11:12:08.255Z,42.36
2019-03-16T11:14:41.068Z,41.46
2019-03-16T11:17:11.258Z,42.97
2019-03-16T11:19:42.741Z,43.60
2019-03-16T11:22:13.226Z,46.89
2019-03-16T11:24:43.778Z,46.49
2019-03-16T11:27:17.040Z,46.07
2019-03-16T11:29:46.470Z,45.30
2019-03-16T11:32:16.926Z,44.78
2019-03-16T11:34:47.356Z,42.36
2019-03-16T11:37:17.849Z,42.30
2019-03-16T11:39:48.318Z,43.80
2019-03-16T11:42:18.871Z,42.45
2019-03-16T11:44:49.366Z,45.30
2019-03-16T11:47:20.545Z,47.18
2019-03-16T11:49:51.031Z,47.26
2019-03-16T11:52:21.853Z,46.09
2019-03-16T11:54:52.232Z,46.91
2019-03-16T11:57:22.879Z,47.19
2019-03-16T11:59:53.360Z,45.85
2019-03-16T12:02:23.804Z,45.06
2019-03-16T12:04:54.391Z,44.81
2019-03-16T12:07:24.914Z,45.63
2019-03-16T12:09:55.470Z,44.70
2019-03-16T12:12:26.097Z,45.03
2019-03-16T12:14:56.634Z,47.36
2019-03-16T12:17:27.056Z,47.95
2019-03-16T12:19:57.603Z,47.73
2019-03-16T12:22:28.479Z,47.25
2019-03-16T12:24:59.058Z,48.24
2019-03-16T12:27:29.706Z,47.93
2019-03-16T12:30:00.379Z,47.34
2019-03-16T12:32:30.956Z,46.34
2019-03-16T12:35:01.392Z,46.38
2019-03-16T12:37:31.841Z,45.34
2019-03-16T12:40:02.296Z,46.92
2019-03-16T12:42:32.690Z,45.88
2019-03-16T12:45:03.238Z,45.38
2019-03-16T12:47:33.743Z,46.18
2019-03-16T12:50:04.742Z,45.89
2019-03-16T12:52:35.198Z,44.66
2019-03-16T12:55:06.632Z,46.25
2019-03-16T12:57:37.350Z,45.52
2019-03-16T13:00:10.447Z,45.15
2019-03-16T13:02:41.002Z,44.75
2019-03-16T13:05:11.848Z,45.45
2019-03-16T13:07:42.341Z,45.66
2019-03-16T13:10:13.651Z,46.49
2019-03-16T13:12:44.284Z,46.25
2019-03-16T13:15:14.930Z,46.62
2019-03-16T13:17:45.491Z,48.63
2019-03-16T13:20:16.102Z,46.91
2019-03-16T13:22:46.600Z,47.56
2019-03-16T13:25:17.477Z,45.57
2019-03-16T13:27:48.322Z,44.76
2019-03-16T13:30:18.959Z,45.17
2019-03-16T13:32:49.819Z,45.46
2019-03-16T13:35:20.522Z,44.09
2019-03-16T13:37:50.990Z,44.32
2019-03-16T13:40:21.630Z,44.66
2019-03-16T13:42:52.121Z,44.65
2019-03-16T13:45:22.726Z,45.05
2019-03-16T13:47:53.276Z,44.54
2019-03-16T13:50:23.834Z,45.01
2019-03-16T13:52:54.994Z,45.68
2019-03-16T13:55:25.476Z,46.22
2019-03-16T13:57:55.955Z,43.76
2019-03-16T14:00:26.912Z,44.44
2019-03-16T14:02:57.639Z,42.82
2019-03-16T14:05:28.451Z,44.42
2019-03-16T14:07:58.962Z,45.56
2019-03-16T14:10:30.022Z,45.04
2019-03-16T14:13:00.694Z,43.73
2019-03-16T14:15:31.322Z,45.07
2019-03-16T14:18:02.065Z,45.31
2019-03-16T14:20:32.533Z,45.07
2019-03-16T14:23:03.488Z,46.05
2019-03-16T14:25:34.409Z,45.12
2019-03-16T14:28:05.000Z,45.40
2019-03-16T14:30:41.773Z,46.54
2019-03-16T14:33:07.756Z,46.09
2019-03-16T14:35:38.308Z,47.82
2019-03-16T14:38:09.447Z,47.68
2019-03-16T14:40:39.821Z,48.19
2019-03-16T14:43:11.558Z,48.62
2019-03-16T14:45:42.217Z,49.79
2019-03-16T14:48:12.819Z,50.18
2019-03-16T14:50:43.166Z,50.02
2019-03-16T14:53:13.556Z,50.26
2019-03-16T14:55:44.121Z,50.99
2019-03-16T14:58:14.770Z,51.57
2019-03-16T15:00:45.214Z,51.58
2019-03-16T15:03:15.808Z,52.77
2019-03-16T15:05:46.687Z,52.32
2019-03-16T15:08:17.171Z,52.82
2019-03-16T15:10:47.690Z,54.46
2019-03-16T15:13:18.218Z,55.00
2019-03-16T15:15:48.810Z,54.87
2019-03-16T15:18:19.352Z,55.70
2019-03-16T15:20:50.556Z,57.26
2019-03-16T15:23:21.043Z,57.21
2019-03-16T15:25:52.905Z,58.37
2019-03-16T15:28:23.614Z,59.21
2019-03-16T15:30:54.019Z,60.27
2019-03-16T15:33:24.511Z,60.46
2019-03-16T15:35:55.319Z,61.31
2019-03-16T15:38:25.888Z,61.80
2019-03-16T15:40:56.332Z,62.52
2019-03-16T15:43:29.655Z,63.29
2019-03-16T15:46:00.278Z,63.86
2019-03-16T15:48:30.758Z,65.17
2019-03-16T15:51:01.243Z,66.96
2019-03-16T15:53:31.826Z,67.30
2019-03-16T15:56:02.394Z,68.40
2019-03-16T15:58:32.979Z,68.30
2019-03-16T16:01:05.191Z,69.49
2019-03-16T16:03:35.913Z,70.67
2019-03-16T16:06:09.985Z,71.76
2019-03-16T16:08:40.509Z,72.58
2019-03-16T16:11:12.162Z,73.13
2019-03-16T16:13:42.809Z,73.65
2019-03-16T16:16:14.302Z,73.94
2019-03-16T16:18:46.076Z,75.13
2019-03-16T16:21:16.597Z,75.68
2019-03-16T16:23:48.260Z,76.18
2019-03-16T16:26:21.021Z,77.80
2019-03-16T16:28:52.822Z,78.75
2019-03-16T16:31:24.485Z,78.80
2019-03-16T16:34:02.779Z,79.47
2019-03-16T16:36:32.706Z,79.77
2019-03-16T16:39:06.198Z,80.10
2019-03-16T16:41:38.734Z,81.09
2019-03-16T16:44:09.545Z,81.26
2019-03-16T16:46:41.386Z,81.31
2019-03-16T16:49:12.102Z,82.17
2019-03-16T16:51:42.775Z,82.41
2019-03-16T16:54:13.486Z,82.83
2019-03-16T16:56:44.466Z,83.01
2019-03-16T16:59:17.101Z,83.35
2019-03-16T17:01:47.731Z,83.45
2019-03-16T17:04:18.252Z,83.94
2019-03-16T17:06:48.858Z,84.03
2019-03-16T17:09:21.532Z,84.51
2019-03-16T17:11:52.107Z,84.71
2019-03-16T17:14:25.000Z,84.70
2019-03-16T17:16:59.029Z,85.34
2019-03-16T17:19:31.667Z,85.72
2019-03-16T17:22:02.109Z,85.79
2019-03-16T17:24:34.235Z,86.13
2019-03-16T17:27:05.038Z,86.68
2019-03-16T17:29:38.744Z,86.54
2019-03-16T17:32:10.525Z,86.91
2019-03-16T17:34:41.433Z,87.62
2019-03-16T17:37:13.071Z,88.80
2019-03-16T17:39:45.066Z,89.66
2019-03-16T17:42:15.871Z,90.25
2019-03-16T17:44:47.545Z,90.42
2019-03-16T17:47:20.347Z,90.22
2019-03-16T17:49:51.106Z,90.27
2019-03-16T17:52:21.607Z,90.92
2019-03-16T17:54:53.299Z,91.66
2019-03-16T17:57:23.892Z,91.90
2019-03-16T18:00:00.424Z,91.88
2019-03-16T18:02:31.376Z,92.24
2019-03-16T18:05:04.251Z,92.50
2019-03-16T18:07:35.515Z,92.79
2019-03-16T18:10:07.096Z,93.14
2019-03-16T18:12:37.776Z,93.43
2019-03-16T18:15:11.986Z,93.87
2019-03-16T18:17:42.506Z,94.29
2019-03-16T18:20:17.077Z,94.48
2019-03-16T18:22:47.016Z,94.55
2019-03-16T18:25:18.880Z,94.75
2019-03-16T18:27:50.143Z,95.02
2019-03-16T18:30:24.926Z,95.22
2019-03-16T18:32:59.038Z,95.32
2019-03-16T18:35:33.911Z,95.42
2019-03-16T18:38:12.691Z,95.61
2019-03-16T18:40:43.641Z,95.79
2019-03-16T18:43:17.578Z,95.94
2019-03-16T18:45:57.232Z,96.00
2019-03-16T18:48:30.525Z,96.10
2019-03-16T18:51:02.500Z,96.27
2019-03-16T18:53:33.279Z,96.33
2019-03-16T18:56:04.997Z,96.46
2019-03-16T18:58:38.277Z,96.55
2019-03-16T19:01:12.493Z,96.59
2019-03-16T19:03:44.341Z,96.57
2019-03-16T19:06:15.339Z,96.63
2019-03-16T19:08:45.981Z,96.86
2019-03-16T19:11:16.631Z,97.02
2019-03-16T19:13:50.379Z,97.11
2019-03-16T19:16:21.198Z,97.12
2019-03-16T19:18:57.780Z,97.09
2019-03-16T19:21:31.890Z,97.07
2019-03-16T19:24:02.406Z,97.05
2019-03-16T19:26:35.516Z,97.10
2019-03-16T19:29:10.470Z,97.16
2019-03-16T19:31:44.168Z,97.18
2019-03-16T19:34:16.788Z,97.29
2019-03-16T19:36:47.379Z,97.33
2019-03-16T19:39:21.499Z,97.44
2019-03-16T19:41:56.179Z,97.61
2019-03-16T19:44:34.001Z,97.71
2019-03-16T19:47:09.840Z,97.76
2019-03-16T19:49:40.648Z,97.74
2019-03-16T19:52:12.340Z,97.77
2019-03-16T19:54:45.204Z,97.78
2019-03-16T19:57:16.524Z,97.83
2019-03-16T19:59:52.662Z,97.83
2019-03-16T20:02:23.514Z,97.82
2019-03-16T20:04:56.237Z,97.82
2019-03-16T20:07:32.394Z,97.83
2019-03-16T20:10:04.469Z,97.83
2019-03-16T20:12:35.145Z,97.82
2019-03-16T20:15:11.161Z,97.73
2019-03-16T20:17:42.004Z,97.66
2019-03-16T20:20:20.027Z,97.61
2019-03-16T20:22:50.869Z,97.65
2019-03-16T20:25:27.018Z,97.53
2019-03-16T20:28:06.740Z,97.35
2019-03-16T20:30:37.336Z,97.21
2019-03-16T20:33:07.831Z,96.90
2019-03-16T20:35:38.423Z,96.66
2019-03-16T20:38:09.006Z,96.56
2019-03-16T20:40:49.799Z,96.43
2019-03-16T20:43:22.711Z,96.38
2019-03-16T20:45:56.409Z,96.21
2019-03-16T20:48:32.547Z,96.16
2019-03-16T20:51:04.342Z,96.14
2019-03-16T20:53:35.955Z,96.13
2019-03-16T20:56:06.565Z,96.15
2019-03-16T20:58:39.546Z,95.86
2019-03-16T21:01:14.996Z,95.80
2019-03-16T21:03:51.079Z,95.84
2019-03-16T21:06:22.593Z,95.98
2019-03-16T21:09:02.662Z,95.99
2019-03-16T21:11:26.253Z,96.04
2019-03-16T21:13:57.886Z,96.00
2019-03-16T21:16:30.900Z,95.91
2019-03-16T21:19:08.395Z,95.91
2019-03-16T21:21:40.072Z,96.02
2019-03-16T21:24:11.979Z,95.92
2019-03-16T21:26:52.268Z,95.83
2019-03-16T21:29:26.227Z,95.68
2019-03-16T21:31:55.576Z,95.76
2019-03-16T21:34:36.617Z,96.00
2019-03-16T21:37:08.495Z,96.00
2019-03-16T21:39:39.092Z,95.87
2019-03-16T21:42:10.022Z,95.86
2019-03-16T21:44:40.486Z,95.86
2019-03-16T21:47:11.052Z,95.91
2019-03-16T21:49:41.677Z,96.05
2019-03-16T21:52:12.460Z,95.99
2019-03-16T21:54:42.879Z,95.98
2019-03-16T21:57:13.489Z,95.98
2019-03-16T21:59:46.469Z,96.00
2019-03-16T22:02:17.079Z,96.03
2019-03-16T22:04:47.651Z,96.14
2019-03-16T22:07:18.172Z,96.19
2019-03-16T22:09:48.637Z,96.23
2019-03-16T22:12:19.058Z,96.19
2019-03-16T22:14:49.651Z,96.10
2019-03-16T22:17:20.138Z,96.01
2019-03-16T22:19:50.758Z,95.93
2019-03-16T22:22:21.347Z,95.82
2019-03-16T22:24:51.740Z,95.63
2019-03-16T22:27:22.241Z,95.46
2019-03-16T22:29:52.739Z,95.28
2019-03-16T22:32:23.592Z,95.08
2019-03-16T22:34:54.264Z,94.99
2019-03-16T22:37:24.756Z,94.73
2019-03-16T22:39:55.193Z,94.58
2019-03-16T22:42:25.652Z,94.63
2019-03-16T22:44:56.043Z,94.68
2019-03-16T22:47:26.599Z,94.59
2019-03-16T22:49:57.101Z,94.61
2019-03-16T22:52:27.682Z,94.58
2019-03-16T22:54:58.231Z,94.49
2019-03-16T22:57:28.869Z,94.43
2019-03-16T22:59:59.300Z,94.27
2019-03-16T23:02:29.830Z,94.14
2019-03-16T23:05:00.412Z,94.06
2019-03-16T23:07:30.789Z,93.91
2019-03-16T23:10:01.352Z,93.69
2019-03-16T23:12:31.846Z,93.62
2019-03-16T23:15:02.429Z,93.62
2019-03-16T23:17:33.073Z,93.54
2019-03-16T23:20:03.660Z,93.42
2019-03-16T23:22:34.138Z,93.62
2019-03-16T23:25:04.852Z,93.68
2019-03-16T23:27:35.337Z,93.73
2019-03-16T23:30:06.399Z,93.68
2019-03-16T23:32:37.016Z,93.67
2019-03-16T23:35:07.890Z,93.80
2019-03-16T23:37:38.319Z,93.86
2019-03-16T23:40:09.144Z,94.09
2019-03-16T23:42:39.658Z,94.07
2019-03-16T23:45:10.775Z,93.97
2019-03-16T23:47:41.371Z,93.58
2019-03-16T23:50:12.132Z,93.41
2019-03-16T23:52:42.787Z,93.46
2019-03-16T23:55:13.506Z,93.43
2019-03-16T23:57:44.008Z,93.31
